Time Latitude Longitude Accuracy (66% radius in meters) Altitude (meters) Speed (km/hour) Bearing (degrees) Battery (%) GPS flag
11:02:57 31.936050 34.949463 3 139.20077213871 0.08644525706768 128.84880065918 83 1 delete
11:02:46 31.936061 34.949436 3 139.15168949598 0.043053220957518 128.84880065918 83 1 delete
11:02:34 31.936069 34.949424 3 139.08236626317 0.062291249632835 128.84880065918 83 1 delete
11:02:24 31.936064 34.949438 3 139.03743001418 0.011462961323559 128.84880065918 83 1 delete
11:02:13 31.936065 34.949446 3 139.0141474651 0.019452575594187 128.84880065918 83 1 delete
11:02:03 31.936072 34.949450 3 138.94827773485 0.051832657307386 128.84880065918 83 1 delete
11:01:53 31.936048 34.949476 3 138.85062643752 0.11154717952013 118.2744140625 83 1 delete
11:01:43 31.936059 34.949464 3 138.77716312546 0.11603891849518 118.2744140625 83 1 delete
11:01:32 31.936055 34.949471 3 138.7235771141 0.0083227092400193 118.2744140625 83 1 delete
11:01:22 31.936059 34.949480 3 138.69599616742 0.080220229923725 118.2744140625 83 1 delete
11:01:12 31.936050 34.949493 3 138.66779412171 0.053366038948298 118.2744140625 83 1 delete
11:01:02 31.936053 34.949490 3 138.56001762173 0.062486536800861 118.2744140625 83 1 delete
11:00:51 31.936053 34.949500 3 138.44636195489 0.060676023364067 118.2744140625 83 1 delete
11:00:41 31.936051 34.949508 3 138.39502590584 0.088654905557632 118.2744140625 83 1 delete
11:00:30 31.936052 34.949516 3 138.36663548628 0.048885501921177 118.2744140625 83 1 delete
11:00:20 31.936049 34.949517 3 138.33964783133 0.0074900854378939 118.2744140625 83 1 delete
11:00:10 31.936052 34.949517 3 138.31270767319 0.11174863576889 118.2744140625 83 1 delete
11:00:00 31.936055 34.949524 3 138.26247716899 0.019096625968814 118.2744140625 83 1 delete
10:59:49 31.936054 34.949518 2 138.17977405271 0.091571472585201 118.2744140625 83 1 delete
10:59:45 31.936056 34.949509 2 138.16800775112 0.10658686608076 118.2744140625 83 1 delete
10:59:39 31.936054 34.949505 2 138.14974999221 0.0098825981840491 118.2744140625 83 1 delete
10:59:29 31.936058 34.949497 2 138.10247798547 0.046985633671284 118.2744140625 83 1 delete
10:59:18 31.936062 34.949478 3 138.08135606854 0.1018336340785 118.2744140625 83 1 delete
10:59:08 31.936061 34.949469 2 138.06441678546 0.041783910244703 118.2744140625 83 1 delete
10:58:58 31.936060 34.949469 2 138.03681803965 0.019024010747671 118.2744140625 83 1 delete
10:58:47 31.936058 34.949472 3 138.02117973873 0.027809163555503 118.2744140625 83 1 delete
10:58:37 31.936065 34.949488 2 137.94119428281 0.059015236794949 118.2744140625 83 1 delete
10:58:26 31.936079 34.949443 3 137.8000907814 0.24078240990639 194.89433288574 83 1 delete
10:58:16 31.936096 34.949462 3 137.65552697071 0.58898770809174 108.21282196045 83 1 delete
10:58:06 31.936095 34.949425 3 137.4903775753 0.75218820571899 69.315307617188 83 1 delete
10:57:55 31.936085 34.949412 3 137.42229104776 0.0083738090470433 23.938232421875 83 1 delete
10:57:43 31.936087 34.949409 3 137.40989780477 0.025977438315749 23.938232421875 83 1 delete
10:57:31 31.936087 34.949408 3 137.3811328118 0.017632678151131 23.938232421875 83 1 delete
10:57:18 31.936076 34.949413 3 137.37362897758 0.042308691889048 23.938232421875 83 1 delete
10:57:06 31.935997 34.949387 4 137.32259281256 2.81458568573 15.597605705261 83 1 delete
10:57:03 31.935930 34.949365 4 137.31250640351 3.1561322212219 8.5360317230225 83 1 delete
10:57:02 31.935904 34.949372 3 137.30885664168 3.2254869937897 340.99127197266 83 1 delete
10:56:58 31.935815 34.949400 3 137.29488772466 3.6684021949768 339.03634643555 83 1 delete
10:56:55 31.935730 34.949462 3 137.28702865187 3.7453854084015 331.56024169922 83 1 delete
10:56:52 31.935632 34.949518 3 137.28094665269 3.7159984111786 334.46411132812 83 1 delete
10:56:51 31.935599 34.949553 3 137.265948439 3.6274998188019 317.23834228516 83 1 delete
10:56:49 31.935549 34.949637 3 137.23986192071 3.4042778015137 304.17877197266 83 1 delete
10:56:46 31.935499 34.949736 3 137.23373083107 3.3821458816528 298.96878051758 83 1 delete
10:56:43 31.935455 34.949840 3 137.22606006739 3.4212968349457 306.00335693359 83 1 delete
10:56:39 31.935402 34.949964 3 137.21433293801 3.5044913291931 299.39517211914 83 1 delete
10:56:35 31.935351 34.950083 3 137.20026911737 3.6861367225647 307.77484130859 83 1 delete
10:56:32 31.935304 34.950181 3 137.18869038788 3.7229125499725 302.35781860352 83 1 delete
10:56:29 31.935248 34.950288 3 137.17613920822 3.684449672699 300.69845581055 83 1 delete
10:56:26 31.935197 34.950394 3 137.16246194344 3.6236984729767 298.4421081543 83 1 delete
10:56:23 31.935138 34.950521 3 137.14848665406 3.5351178646088 294.89602661133 83 1 delete